sensor_id;sensor_type;location;lat;lon;timestamp;pressure;altitude;pressure_sealevel;temperature;humidity
37238;BME280;23129;49.662;8.448;2023-01-26T00:00:22;101503.38;;;1.58;100.00
37238;BME280;23129;49.662;8.448;2023-01-26T00:02:50;101505.94;;;1.56;100.00
37238;BME280;23129;49.662;8.448;2023-01-26T00:05:19;101500.69;;;1.53;100.00
37238;BME280;23129;49.662;8.448;2023-01-26T00:07:47;101510.06;;;1.50;100.00
37238;BME280;23129;49.662;8.448;2023-01-26T00:10:16;101508.31;;;1.49;100.00
37238;BME280;23129;49.662;8.448;2023-01-26T00:12:44;101494.50;;;1.47;100.00
37238;BME280;23129;49.662;8.448;2023-01-26T00:15:13;101491.91;;;1.47;100.00
37238;BME280;23129;49.662;8.448;2023-01-26T00:17:44;101491.06;;;1.48;100.00
37238;BME280;23129;49.662;8.448;2023-01-26T00:20:12;101491.97;;;1.50;100.00
37238;BME280;23129;49.662;8.448;2023-01-26T00:22:41;101493.72;;;1.51;100.00
37238;BME280;23129;49.662;8.448;2023-01-26T00:25:10;101485.97;;;1.51;100.00
37238;BME280;23129;49.662;8.448;2023-01-26T00:27:38;101488.50;;;1.49;100.00
37238;BME280;23129;49.662;8.448;2023-01-26T00:30:08;101482.44;;;1.49;100.00
37238;BME280;23129;49.662;8.448;2023-01-26T00:32:37;101480.72;;;1.48;100.00
37238;BME280;23129;49.662;8.448;2023-01-26T00:35:08;101470.38;;;1.48;100.00
37238;BME280;23129;49.662;8.448;2023-01-26T00:37:36;101465.19;;;1.48;100.00
37238;BME280;23129;49.662;8.448;2023-01-26T00:40:05;101466.94;;;1.49;100.00
37238;BME280;23129;49.662;8.448;2023-01-26T00:42:34;101463.53;;;1.50;100.00
37238;BME280;23129;49.662;8.448;2023-01-26T00:45:04;101468.72;;;1.50;100.00
37238;BME280;23129;49.662;8.448;2023-01-26T00:47:33;101466.94;;;1.49;100.00
37238;BME280;23129;49.662;8.448;2023-01-26T00:50:02;101461.78;;;1.49;100.00
37238;BME280;23129;49.662;8.448;2023-01-26T00:52:32;101457.47;;;1.49;100.00
37238;BME280;23129;49.662;8.448;2023-01-26T00:55:00;101455.78;;;1.50;100.00
37238;BME280;23129;49.662;8.448;2023-01-26T00:57:29;101454.88;;;1.48;100.00
37238;BME280;23129;49.662;8.448;2023-01-26T00:59:57;101461.69;;;1.46;100.00
37238;BME280;23129;49.662;8.448;2023-01-26T01:02:26;101464.25;;;1.44;100.00
37238;BME280;23129;49.662;8.448;2023-01-26T01:04:54;101466.78;;;1.43;100.00
37238;BME280;23129;49.662;8.448;2023-01-26T01:07:25;101454.72;;;1.42;100.00
37238;BME280;23129;49.662;8.448;2023-01-26T01:09:55;101463.25;;;1.39;100.00
37238;BME280;23129;49.662;8.448;2023-01-26T01:12:23;101464.97;;;1.39;100.00
37238;BME280;23129;49.662;8.448;2023-01-26T01:14:54;101458.94;;;1.38;100.00
37238;BME280;23129;49.662;8.448;2023-01-26T01:17:23;101461.53;;;1.40;100.00
37238;BME280;23129;49.662;8.448;2023-01-26T01:19:51;101462.41;;;1.40;100.00
37238;BME280;23129;49.662;8.448;2023-01-26T01:22:21;101463.28;;;1.41;100.00
37238;BME280;23129;49.662;8.448;2023-01-26T01:24:49;101465.84;;;1.41;100.00
37238;BME280;23129;49.662;8.448;2023-01-26T01:27:19;101459.88;;;1.42;100.00
37238;BME280;23129;49.662;8.448;2023-01-26T01:29:48;101461.63;;;1.43;100.00
37238;BME280;23129;49.662;8.448;2023-01-26T01:32:18;101457.28;;;1.42;100.00
37238;BME280;23129;49.662;8.448;2023-01-26T01:34:46;101453.00;;;1.42;100.00
37238;BME280;23129;49.662;8.448;2023-01-26T01:37:15;101458.22;;;1.44;100.00
37238;BME280;23129;49.662;8.448;2023-01-26T01:39:44;101460.75;;;1.42;100.00
37238;BME280;23129;49.662;8.448;2023-01-26T01:42:12;101459.88;;;1.42;100.00
37238;BME280;23129;49.662;8.448;2023-01-26T01:45:28;101452.13;;;1.42;100.00
37238;BME280;23129;49.662;8.448;2023-01-26T01:47:32;101451.28;;;1.43;100.00
37238;BME280;23129;49.662;8.448;2023-01-26T01:50:00;101456.38;;;1.40;100.00
37238;BME280;23129;49.662;8.448;2023-01-26T01:52:30;101451.19;;;1.38;100.00
37238;BME280;23129;49.662;8.448;2023-01-26T01:55:04;101461.47;;;1.36;100.00
37238;BME280;23129;49.662;8.448;2023-01-26T01:57:38;101451.03;;;1.33;100.00
37238;BME280;23129;49.662;8.448;2023-01-26T02:00:16;101444.94;;;1.30;100.00
37238;BME280;23129;49.662;8.448;2023-01-26T02:02:51;101448.34;;;1.29;100.00
37238;BME280;23129;49.662;8.448;2023-01-26T02:05:42;101452.63;;;1.28;100.00
37238;BME280;23129;49.662;8.448;2023-01-26T02:08:15;101459.56;;;1.29;100.00
37238;BME280;23129;49.662;8.448;2023-01-26T02:10:47;101454.41;;;1.29;100.00
37238;BME280;23129;49.662;8.448;2023-01-26T02:13:18;101450.13;;;1.31;100.00
37238;BME280;23129;49.662;8.448;2023-01-26T02:15:49;101444.94;;;1.31;100.00
37238;BME280;23129;49.662;8.448;2023-01-26T02:18:18;101444.13;;;1.32;100.00
37238;BME280;23129;49.662;8.448;2023-01-26T02:20:51;101438.13;;;1.33;100.00
37238;BME280;23129;49.662;8.448;2023-01-26T02:23:28;101443.34;;;1.35;100.00
37238;BME280;23129;49.662;8.448;2023-01-26T02:26:08;101439.03;;;1.35;100.00
37238;BME280;23129;49.662;8.448;2023-01-26T02:28:38;101443.38;;;1.36;100.00
37238;BME280;23129;49.662;8.448;2023-01-26T02:31:09;101435.63;;;1.36;100.00
37238;BME280;23129;49.662;8.448;2023-01-26T02:33:39;101433.09;;;1.38;100.00
37238;BME280;23129;49.662;8.448;2023-01-26T02:36:17;101437.34;;;1.37;100.00
37238;BME280;23129;49.662;8.448;2023-01-26T02:38:55;101437.34;;;1.37;100.00
37238;BME280;23129;49.662;8.448;2023-01-26T02:41:27;101439.13;;;1.39;100.00
37238;BME280;23129;49.662;8.448;2023-01-26T02:44:14;101433.09;;;1.40;100.00
37238;BME280;23129;49.662;8.448;2023-01-26T02:46:42;101425.34;;;1.40;100.00
37238;BME280;23129;49.662;8.448;2023-01-26T02:49:12;101423.63;;;1.39;100.00
37238;BME280;23129;49.662;8.448;2023-01-26T02:51:59;101428.78;;;1.39;100.00
37238;BME280;23129;49.662;8.448;2023-01-26T02:54:27;101428.78;;;1.39;100.00
37238;BME280;23129;49.662;8.448;2023-01-26T02:57:15;101422.75;;;1.38;100.00
37238;BME280;23129;49.662;8.448;2023-01-26T02:59:44;101420.97;;;1.37;100.00
37238;BME280;23129;49.662;8.448;2023-01-26T03:02:14;101415.78;;;1.35;100.00
37238;BME280;23129;49.662;8.448;2023-01-26T03:04:42;101408.03;;;1.35;100.00
37238;BME280;23129;49.662;8.448;2023-01-26T03:07:11;101414.84;;;1.33;100.00
37238;BME280;23129;49.662;8.448;2023-01-26T03:09:39;101415.72;;;1.34;100.00
37238;BME280;23129;49.662;8.448;2023-01-26T03:12:08;101405.38;;;1.34;100.00
37238;BME280;23129;49.662;8.448;2023-01-26T03:14:37;101405.44;;;1.35;100.00
37238;BME280;23129;49.662;8.448;2023-01-26T03:17:06;101397.69;;;1.35;100.00
37238;BME280;23129;49.662;8.448;2023-01-26T03:19:36;101400.28;;;1.37;100.00
37238;BME280;23129;49.662;8.448;2023-01-26T03:22:22;101395.97;;;1.36;100.00
37238;BME280;23129;49.662;8.448;2023-01-26T03:25:09;101389.94;;;1.35;100.00
37238;BME280;23129;49.662;8.448;2023-01-26T03:27:58;101385.59;;;1.34;100.00
37238;BME280;23129;49.662;8.448;2023-01-26T03:30:28;101387.34;;;1.35;100.00
37238;BME280;23129;49.662;8.448;2023-01-26T03:32:57;101389.94;;;1.35;100.00
37238;BME280;23129;49.662;8.448;2023-01-26T03:35:26;101381.31;;;1.35;100.00
37238;BME280;23129;49.662;8.448;2023-01-26T03:37:54;101378.75;;;1.36;100.00
37238;BME280;23129;49.662;8.448;2023-01-26T03:40:35;101375.25;;;1.34;100.00
37238;BME280;23129;49.662;8.448;2023-01-26T03:43:19;101371.78;;;1.32;100.00
37238;BME280;23129;49.662;8.448;2023-01-26T03:46:07;101362.25;;;1.31;100.00
37238;BME280;23129;49.662;8.448;2023-01-26T03:48:53;101359.66;;;1.31;100.00
37238;BME280;23129;49.662;8.448;2023-01-26T03:51:39;101358.78;;;1.31;100.00
37238;BME280;23129;49.662;8.448;2023-01-26T03:54:25;101350.19;;;1.30;100.00
37238;BME280;23129;49.662;8.448;2023-01-26T03:57:11;101363.97;;;1.31;100.00
37238;BME280;23129;49.662;8.448;2023-01-26T03:59:40;101360.50;;;1.30;100.00
37238;BME280;23129;49.662;8.448;2023-01-26T04:02:14;101363.97;;;1.31;100.00
37238;BME280;23129;49.662;8.448;2023-01-26T04:05:01;101345.84;;;1.29;100.00
37238;BME280;23129;49.662;8.448;2023-01-26T04:07:52;101357.06;;;1.30;100.00
37238;BME280;23129;49.662;8.448;2023-01-26T04:10:38;101358.78;;;1.29;100.00
37238;BME280;23129;49.662;8.448;2023-01-26T04:13:07;101361.34;;;1.29;100.00
37238;BME280;23129;49.662;8.448;2023-01-26T04:15:59;101360.44;;;1.27;100.00
37238;BME280;23129;49.662;8.448;2023-01-26T04:18:46;101365.44;;;1.21;100.00
37238;BME280;23129;49.662;8.448;2023-01-26T04:21:33;101361.06;;;1.17;100.00
37238;BME280;23129;49.662;8.448;2023-01-26T04:24:09;101354.13;;;1.16;100.00
37238;BME280;23129;49.662;8.448;2023-01-26T04:26:43;101366.22;;;1.17;100.00
37238;BME280;23129;49.662;8.448;2023-01-26T04:29:19;101352.47;;;1.18;100.00
37238;BME280;23129;49.662;8.448;2023-01-26T04:31:50;101350.72;;;1.17;100.00
37238;BME280;23129;49.662;8.448;2023-01-26T04:34:22;101349.03;;;1.19;100.00
37238;BME280;23129;49.662;8.448;2023-01-26T04:36:50;101340.38;;;1.17;100.00
37238;BME280;23129;49.662;8.448;2023-01-26T04:39:22;101336.03;;;1.16;100.00
37238;BME280;23129;49.662;8.448;2023-01-26T04:41:54;101336.09;;;1.18;100.00
37238;BME280;23129;49.662;8.448;2023-01-26T04:44:22;101336.97;;;1.18;100.00
37238;BME280;23129;49.662;8.448;2023-01-26T04:46:51;101333.50;;;1.18;100.00
37238;BME280;23129;49.662;8.448;2023-01-26T04:49:19;101328.34;;;1.19;100.00
37238;BME280;23129;49.662;8.448;2023-01-26T04:51:49;101330.94;;;1.19;100.00
37238;BME280;23129;49.662;8.448;2023-01-26T04:54:18;101332.59;;;1.16;100.00
37238;BME280;23129;49.662;8.448;2023-01-26T04:56:47;101323.97;;;1.15;100.00
37238;BME280;23129;49.662;8.448;2023-01-26T04:59:16;101328.22;;;1.13;100.00
37238;BME280;23129;49.662;8.448;2023-01-26T05:01:44;101328.22;;;1.13;100.00
37238;BME280;23129;49.662;8.448;2023-01-26T05:04:13;101316.13;;;1.12;100.00
37238;BME280;23129;49.662;8.448;2023-01-26T05:06:45;101316.97;;;1.11;100.00
37238;BME280;23129;49.662;8.448;2023-01-26T05:09:16;101316.13;;;1.12;100.00
37238;BME280;23129;49.662;8.448;2023-01-26T05:11:45;101314.41;;;1.11;100.00
37238;BME280;23129;49.662;8.448;2023-01-26T05:14:36;101312.63;;;1.10;100.00
37238;BME280;23129;49.662;8.448;2023-01-26T05:17:17;101308.25;;;1.07;100.00
37238;BME280;23129;49.662;8.448;2023-01-26T05:20:21;101305.56;;;1.03;100.00
37238;BME280;23129;49.662;8.448;2023-01-26T05:23:03;101303.00;;;1.04;100.00
37238;BME280;23129;49.662;8.448;2023-01-26T05:25:33;101303.00;;;1.04;100.00
37238;BME280;23129;49.662;8.448;2023-01-26T05:28:08;101318.50;;;1.04;100.00
37238;BME280;23129;49.662;8.448;2023-01-26T05:30:37;101308.16;;;1.03;100.00
37238;BME280;23129;49.662;8.448;2023-01-26T05:33:07;101321.06;;;1.03;100.00
37238;BME280;23129;49.662;8.448;2023-01-26T05:35:38;101315.00;;;1.01;100.00
37238;BME280;23129;49.662;8.448;2023-01-26T05:38:09;101313.28;;;1.01;100.00
37238;BME280;23129;49.662;8.448;2023-01-26T05:40:38;101317.56;;;1.01;100.00
37238;BME280;23129;49.662;8.448;2023-01-26T05:43:08;101317.56;;;1.01;100.00
37238;BME280;23129;49.662;8.448;2023-01-26T05:45:48;101320.13;;;0.99;100.00
37238;BME280;23129;49.662;8.448;2023-01-26T05:48:17;101315.84;;;1.00;100.00
37238;BME280;23129;49.662;8.448;2023-01-26T05:50:48;101326.16;;;1.00;100.00
37238;BME280;23129;49.662;8.448;2023-01-26T05:53:19;101314.97;;;0.99;100.00
37238;BME280;23129;49.662;8.448;2023-01-26T05:55:49;101321.00;;;1.00;100.00
37238;BME280;23129;49.662;8.448;2023-01-26T05:58:21;101327.81;;;0.98;100.00
37238;BME280;23129;49.662;8.448;2023-01-26T06:00:50;101318.38;;;0.98;100.00
37238;BME280;23129;49.662;8.448;2023-01-26T06:03:25;101327.88;;;0.99;100.00
37238;BME280;23129;49.662;8.448;2023-01-26T06:05:54;101331.34;;;1.00;100.00
37238;BME280;23129;49.662;8.448;2023-01-26T06:08:41;101336.41;;;0.97;100.00
37238;BME280;23129;49.662;8.448;2023-01-26T06:11:31;101341.50;;;0.94;100.00
37238;BME280;23129;49.662;8.448;2023-01-26T06:14:15;101343.16;;;0.91;100.00
37238;BME280;23129;49.662;8.448;2023-01-26T06:16:44;101344.00;;;0.90;100.00
37238;BME280;23129;49.662;8.448;2023-01-26T06:19:13;101352.56;;;0.89;100.00
37238;BME280;23129;49.662;8.448;2023-01-26T06:21:44;101356.00;;;0.88;100.00
37238;BME280;23129;49.662;8.448;2023-01-26T06:24:13;101360.31;;;0.89;100.00
37238;BME280;23129;49.662;8.448;2023-01-26T06:26:42;101357.75;;;0.89;100.00
37238;BME280;23129;49.662;8.448;2023-01-26T06:29:11;101356.94;;;0.90;100.00
37238;BME280;23129;49.662;8.448;2023-01-26T06:31:40;101358.66;;;0.91;100.00
37238;BME280;23129;49.662;8.448;2023-01-26T06:34:10;101357.00;;;0.94;100.00
37238;BME280;23129;49.662;8.448;2023-01-26T06:36:40;101360.47;;;0.94;100.00
37238;BME280;23129;49.662;8.448;2023-01-26T06:39:16;101367.34;;;0.94;100.00
37238;BME280;23129;49.662;8.448;2023-01-26T06:41:45;101366.50;;;0.95;100.00
37238;BME280;23129;49.662;8.448;2023-01-26T06:44:14;101372.50;;;0.94;100.00
37238;BME280;23129;49.662;8.448;2023-01-26T06:46:42;101371.63;;;0.93;100.00
37238;BME280;23129;49.662;8.448;2023-01-26T06:49:11;101371.63;;;0.93;100.00
37238;BME280;23129;49.662;8.448;2023-01-26T06:51:54;101360.41;;;0.93;100.00
37238;BME280;23129;49.662;8.448;2023-01-26T06:54:36;101360.41;;;0.93;100.00
37238;BME280;23129;49.662;8.448;2023-01-26T06:57:29;101377.66;;;0.94;100.00
37238;BME280;23129;49.662;8.448;2023-01-26T07:00:01;101365.56;;;0.93;100.00
37238;BME280;23129;49.662;8.448;2023-01-26T07:02:34;101362.16;;;0.94;100.00
37238;BME280;23129;49.662;8.448;2023-01-26T07:05:04;101360.47;;;0.96;100.00
37238;BME280;23129;49.662;8.448;2023-01-26T07:07:33;101358.81;;;0.98;100.00
37238;BME280;23129;49.662;8.448;2023-01-26T07:10:01;101359.69;;;0.98;100.00
37238;BME280;23129;49.662;8.448;2023-01-26T07:12:39;101358.81;;;0.98;100.00
37238;BME280;23129;49.662;8.448;2023-01-26T07:15:09;101358.81;;;0.98;100.00
37238;BME280;23129;49.662;8.448;2023-01-26T07:17:38;101369.16;;;0.98;100.00
37238;BME280;23129;49.662;8.448;2023-01-26T07:20:08;101369.06;;;0.95;100.00
37238;BME280;23129;49.662;8.448;2023-01-26T07:22:37;101377.66;;;0.94;100.00
37238;BME280;23129;49.662;8.448;2023-01-26T07:25:06;101375.81;;;0.89;100.00
37238;BME280;23129;49.662;8.448;2023-01-26T07:27:35;101374.06;;;0.88;100.00
37238;BME280;23129;49.662;8.448;2023-01-26T07:30:07;101372.34;;;0.87;100.00
37238;BME280;23129;49.662;8.448;2023-01-26T07:32:36;101377.41;;;0.84;100.00
37238;BME280;23129;49.662;8.448;2023-01-26T07:35:05;101377.41;;;0.84;100.00
37238;BME280;23129;49.662;8.448;2023-01-26T07:37:34;101383.41;;;0.83;100.00
37238;BME280;23129;49.662;8.448;2023-01-26T07:40:02;101379.13;;;0.84;100.00
37238;BME280;23129;49.662;8.448;2023-01-26T07:42:32;101378.25;;;0.83;100.00
37238;BME280;23129;49.662;8.448;2023-01-26T07:45:10;101386.88;;;0.84;100.00
37238;BME280;23129;49.662;8.448;2023-01-26T07:47:38;101377.41;;;0.84;100.00
37238;BME280;23129;49.662;8.448;2023-01-26T07:50:08;101378.31;;;0.86;100.00
37238;BME280;23129;49.662;8.448;2023-01-26T07:52:38;101382.66;;;0.87;100.00
37238;BME280;23129;49.662;8.448;2023-01-26T07:55:07;101384.31;;;0.85;100.00
37238;BME280;23129;49.662;8.448;2023-01-26T07:57:35;101383.47;;;0.86;100.00
37238;BME280;23129;49.662;8.448;2023-01-26T08:00:05;101380.91;;;0.86;100.00
37238;BME280;23129;49.662;8.448;2023-01-26T08:02:39;101383.53;;;0.88;100.00
37238;BME280;23129;49.662;8.448;2023-01-26T08:05:08;101380.97;;;0.89;100.00
37238;BME280;23129;49.662;8.448;2023-01-26T08:07:37;101376.66;;;0.88;100.00
37238;BME280;23129;49.662;8.448;2023-01-26T08:10:06;101378.47;;;0.91;100.00
37238;BME280;23129;49.662;8.448;2023-01-26T08:12:37;101375.94;;;0.94;100.00
37238;BME280;23129;49.662;8.448;2023-01-26T08:15:08;101382.06;;;0.98;100.00
37238;BME280;23129;49.662;8.448;2023-01-26T08:17:39;101376.97;;;1.01;100.00
37238;BME280;23129;49.662;8.448;2023-01-26T08:20:10;101383.00;;;1.01;100.00
37238;BME280;23129;49.662;8.448;2023-01-26T08:22:40;101381.41;;;1.05;100.00
37238;BME280;23129;49.662;8.448;2023-01-26T08:25:09;101386.66;;;1.08;100.00
37238;BME280;23129;49.662;8.448;2023-01-26T08:27:38;101388.41;;;1.09;100.00
37238;BME280;23129;49.662;8.448;2023-01-26T08:30:16;101387.53;;;1.08;100.00
37238;BME280;23129;49.662;8.448;2023-01-26T08:32:46;101386.75;;;1.11;100.00
37238;BME280;23129;49.662;8.448;2023-01-26T08:35:15;101403.09;;;1.11;100.00
37238;BME280;23129;49.662;8.448;2023-01-26T08:37:43;101403.13;;;1.13;100.00
37238;BME280;23129;49.662;8.448;2023-01-26T08:40:12;101399.75;;;1.16;100.00
37238;BME280;23129;49.662;8.448;2023-01-26T08:42:42;101402.41;;;1.19;100.00
37238;BME280;23129;49.662;8.448;2023-01-26T08:45:11;101398.19;;;1.21;100.00
37238;BME280;23129;49.662;8.448;2023-01-26T08:47:39;101402.56;;;1.23;100.00
37238;BME280;23129;49.662;8.448;2023-01-26T08:50:10;101400.84;;;1.25;100.00
37238;BME280;23129;49.662;8.448;2023-01-26T08:52:39;101400.84;;;1.25;100.00
37238;BME280;23129;49.662;8.448;2023-01-26T08:55:08;101396.63;;;1.27;100.00
37238;BME280;23129;49.662;8.448;2023-01-26T08:57:37;101395.81;;;1.30;100.00
37238;BME280;23129;49.662;8.448;2023-01-26T09:00:06;101390.69;;;1.31;100.00
37238;BME280;23129;49.662;8.448;2023-01-26T09:02:35;101403.56;;;1.30;100.00
37238;BME280;23129;49.662;8.448;2023-01-26T09:05:05;101413.03;;;1.29;100.00
37238;BME280;23129;49.662;8.448;2023-01-26T09:07:35;101409.53;;;1.27;100.00
37238;BME280;23129;49.662;8.448;2023-01-26T09:10:05;101410.41;;;1.28;100.00
37238;BME280;23129;49.662;8.448;2023-01-26T09:12:33;101421.63;;;1.28;100.00
37238;BME280;23129;49.662;8.448;2023-01-26T09:15:02;101417.28;;;1.27;100.00
37238;BME280;23129;49.662;8.448;2023-01-26T09:17:31;101408.69;;;1.28;100.00
37238;BME280;23129;49.662;8.448;2023-01-26T09:20:00;101407.09;;;1.32;100.00
37238;BME280;23129;49.662;8.448;2023-01-26T09:22:28;101404.53;;;1.33;100.00
37238;BME280;23129;49.662;8.448;2023-01-26T09:24:59;101407.09;;;1.33;100.00
37238;BME280;23129;49.662;8.448;2023-01-26T09:27:27;101409.69;;;1.33;100.00
37238;BME280;23129;49.662;8.448;2023-01-26T09:29:56;101406.25;;;1.34;100.00
37238;BME280;23129;49.662;8.448;2023-01-26T09:32:24;101412.34;;;1.36;100.00
37238;BME280;23129;49.662;8.448;2023-01-26T09:34:53;101409.75;;;1.36;100.00
37238;BME280;23129;49.662;8.448;2023-01-26T09:37:21;101402.88;;;1.35;100.00
37238;BME280;23129;49.662;8.448;2023-01-26T09:39:50;101410.63;;;1.37;100.00
37238;BME280;23129;49.662;8.448;2023-01-26T09:42:44;101414.09;;;1.37;100.00
37238;BME280;23129;49.662;8.448;2023-01-26T09:45:24;101406.34;;;1.37;100.00
37238;BME280;23129;49.662;8.448;2023-01-26T09:48:15;101410.72;;;1.40;100.00
37238;BME280;23129;49.662;8.448;2023-01-26T09:50:53;101405.63;;;1.43;100.00
37238;BME280;23129;49.662;8.448;2023-01-26T09:53:27;101409.91;;;1.43;100.00
37238;BME280;23129;49.662;8.448;2023-01-26T09:55:59;101406.53;;;1.44;100.00
37238;BME280;23129;49.662;8.448;2023-01-26T09:58:34;101407.41;;;1.46;100.00
37238;BME280;23129;49.662;8.448;2023-01-26T10:01:15;101407.41;;;1.46;100.00
37238;BME280;23129;49.662;8.448;2023-01-26T10:03:49;101409.91;;;1.43;100.00
37238;BME280;23129;49.662;8.448;2023-01-26T10:06:23;101399.50;;;1.40;100.00
37238;BME280;23129;49.662;8.448;2023-01-26T10:09:14;101397.84;;;1.42;100.00
37238;BME280;23129;49.662;8.448;2023-01-26T10:11:47;101392.75;;;1.45;100.00
37238;BME280;23129;49.662;8.448;2023-01-26T10:14:27;101392.69;;;1.42;100.00
37238;BME280;23129;49.662;8.448;2023-01-26T10:16:59;101397.00;;;1.43;100.00
37238;BME280;23129;49.662;8.448;2023-01-26T10:19:33;101391.00;;;1.44;100.00
37238;BME280;23129;49.662;8.448;2023-01-26T10:22:09;101384.06;;;1.43;100.00
37238;BME280;23129;49.662;8.448;2023-01-26T10:24:39;101386.66;;;1.43;100.00
37238;BME280;23129;49.662;8.448;2023-01-26T10:27:10;101385.84;;;1.44;100.00
37238;BME280;23129;49.662;8.448;2023-01-26T10:29:42;101390.91;;;1.41;100.00
37238;BME280;23129;49.662;8.448;2023-01-26T10:32:12;101389.16;;;1.40;100.00
37238;BME280;23129;49.662;8.448;2023-01-26T10:34:42;101383.13;;;1.39;100.00
37238;BME280;23129;49.662;8.448;2023-01-26T10:37:29;101382.19;;;1.35;100.00
37238;BME280;23129;49.662;8.448;2023-01-26T10:40:00;101392.53;;;1.35;100.00
37238;BME280;23129;49.662;8.448;2023-01-26T10:42:32;101380.47;;;1.36;100.00
37238;BME280;23129;49.662;8.448;2023-01-26T10:45:06;101378.75;;;1.36;100.00
37238;BME280;23129;49.662;8.448;2023-01-26T10:47:35;101378.75;;;1.36;100.00
37238;BME280;23129;49.662;8.448;2023-01-26T10:50:20;101378.72;;;1.35;100.00
37238;BME280;23129;49.662;8.448;2023-01-26T10:52:57;101374.44;;;1.35;100.00
37238;BME280;23129;49.662;8.448;2023-01-26T10:55:27;101372.66;;;1.34;100.00
37238;BME280;23129;49.662;8.448;2023-01-26T10:57:56;101371.00;;;1.36;100.00
37238;BME280;23129;49.662;8.448;2023-01-26T11:00:29;101366.69;;;1.35;100.00
37238;BME280;23129;49.662;8.448;2023-01-26T11:03:05;101365.81;;;1.35;100.00
37238;BME280;23129;49.662;8.448;2023-01-26T11:05:42;101368.41;;;1.36;100.00
37238;BME280;23129;49.662;8.448;2023-01-26T11:08:33;101360.63;;;1.35;100.00
37238;BME280;23129;49.662;8.448;2023-01-26T11:11:03;101357.22;;;1.37;100.00
37238;BME280;23129;49.662;8.448;2023-01-26T11:13:33;101355.50;;;1.36;100.00
37238;BME280;23129;49.662;8.448;2023-01-26T11:16:12;101353.75;;;1.35;100.00
37238;BME280;23129;49.662;8.448;2023-01-26T11:18:49;101351.13;;;1.34;100.00
37238;BME280;23129;49.662;8.448;2023-01-26T11:21:26;101357.16;;;1.34;100.00
37238;BME280;23129;49.662;8.448;2023-01-26T11:24:03;101345.13;;;1.35;100.00
37238;BME280;23129;49.662;8.448;2023-01-26T11:27:15;101344.31;;;1.37;100.00
37238;BME280;23129;49.662;8.448;2023-01-26T11:33:14;101344.31;;;1.37;100.00
37238;BME280;23129;49.662;8.448;2023-01-26T11:35:53;101346.06;;;1.39;100.00
37238;BME280;23129;49.662;8.448;2023-01-26T11:38:34;101344.38;;;1.41;100.00
37238;BME280;23129;49.662;8.448;2023-01-26T11:41:33;101340.97;;;1.42;100.00
37238;BME280;23129;49.662;8.448;2023-01-26T11:44:20;101327.13;;;1.40;100.00
37238;BME280;23129;49.662;8.448;2023-01-26T11:47:07;101315.88;;;1.37;100.00
37238;BME280;23129;49.662;8.448;2023-01-26T11:50:14;101321.91;;;1.36;100.00
37238;BME280;23129;49.662;8.448;2023-01-26T11:52:54;101325.41;;;1.39;100.00
37238;BME280;23129;49.662;8.448;2023-01-26T11:55:37;101316.78;;;1.40;100.00
37238;BME280;23129;49.662;8.448;2023-01-26T11:58:28;101316.88;;;1.43;100.00
37238;BME280;23129;49.662;8.448;2023-01-26T12:01:00;101315.13;;;1.42;100.00
37238;BME280;23129;49.662;8.448;2023-01-26T12:03:37;101317.72;;;1.43;100.00
37238;BME280;23129;49.662;8.448;2023-01-26T12:06:17;101321.25;;;1.45;100.00
37238;BME280;23129;49.662;8.448;2023-01-26T12:08:50;101313.47;;;1.44;100.00
37238;BME280;23129;49.662;8.448;2023-01-26T12:11:24;101309.97;;;1.43;100.00
37238;BME280;23129;49.662;8.448;2023-01-26T12:14:11;101313.34;;;1.41;100.00
37238;BME280;23129;49.662;8.448;2023-01-26T12:16:53;101307.22;;;1.35;100.00
37238;BME280;23129;49.662;8.448;2023-01-26T12:19:49;101308.88;;;1.32;100.00
37238;BME280;23129;49.662;8.448;2023-01-26T12:22:27;101301.88;;;1.28;100.00
37238;BME280;23129;49.662;8.448;2023-01-26T12:25:13;101295.84;;;1.27;100.00
37238;BME280;23129;49.662;8.448;2023-01-26T12:27:52;101288.13;;;1.29;100.00
37238;BME280;23129;49.662;8.448;2023-01-26T12:30:35;101292.41;;;1.28;100.00
37238;BME280;23129;49.662;8.448;2023-01-26T12:33:09;101282.91;;;1.27;100.00
37238;BME280;23129;49.662;8.448;2023-01-26T12:35:58;101286.38;;;1.28;100.00
37238;BME280;23129;49.662;8.448;2023-01-26T12:38:45;101285.50;;;1.27;100.00
37238;BME280;23129;49.662;8.448;2023-01-26T12:41:30;101276.81;;;1.25;100.00
37238;BME280;23129;49.662;8.448;2023-01-26T12:44:16;101271.66;;;1.25;100.00
37238;BME280;23129;49.662;8.448;2023-01-26T12:46:53;101275.97;;;1.25;100.00
37238;BME280;23129;49.662;8.448;2023-01-26T12:49:28;101280.25;;;1.24;100.00
37238;BME280;23129;49.662;8.448;2023-01-26T12:52:06;101277.72;;;1.26;100.00
37238;BME280;23129;49.662;8.448;2023-01-26T12:54:43;101259.66;;;1.27;100.00
37238;BME280;23129;49.662;8.448;2023-01-26T12:57:16;101263.16;;;1.29;100.00
37238;BME280;23129;49.662;8.448;2023-01-26T12:59:47;101263.22;;;1.32;100.00
37238;BME280;23129;49.662;8.448;2023-01-26T13:02:25;101263.22;;;1.32;100.00
37238;BME280;23129;49.662;8.448;2023-01-26T13:04:57;101257.19;;;1.32;100.00
37238;BME280;23129;49.662;8.448;2023-01-26T13:07:33;101255.41;;;1.29;100.00
37238;BME280;23129;49.662;8.448;2023-01-26T13:10:28;101263.09;;;1.26;100.00
37238;BME280;23129;49.662;8.448;2023-01-26T13:13:29;101262.25;;;1.27;100.00
37238;BME280;23129;49.662;8.448;2023-01-26T13:16:32;101263.09;;;1.26;100.00
37238;BME280;23129;49.662;8.448;2023-01-26T13:19:02;101260.50;;;1.26;100.00
37238;BME280;23129;49.662;8.448;2023-01-26T13:21:43;101268.25;;;1.26;100.00
37238;BME280;23129;49.662;8.448;2023-01-26T13:24:41;101263.03;;;1.23;100.00
37238;BME280;23129;49.662;8.448;2023-01-26T13:27:30;101261.25;;;1.22;100.00
37238;BME280;23129;49.662;8.448;2023-01-26T13:29:59;101269.91;;;1.24;100.00